createdAt,value
2018-03-02T00:00:31.038Z,42.03
2018-03-02T00:02:59.387Z,33.20
2018-03-02T00:05:26.962Z,40.00
2018-03-02T00:07:54.527Z,32.60
2018-03-02T00:10:22.850Z,33.67
2018-03-02T00:12:50.398Z,43.20
2018-03-02T00:15:18.735Z,38.20
2018-03-02T00:17:46.284Z,32.17
2018-03-02T00:20:14.624Z,37.37
2018-03-02T00:22:48.720Z,40.83
2018-03-02T00:25:16.288Z,37.47
2018-03-02T00:27:43.836Z,58.93
2018-03-02T00:30:11.404Z,31.40
2018-03-02T00:32:39.719Z,32.27
2018-03-02T00:35:07.307Z,33.30
2018-03-02T00:37:34.860Z,42.23
2018-03-02T00:40:02.407Z,35.70
2018-03-02T00:42:30.747Z,42.60
2018-03-02T00:44:58.298Z,30.30
2018-03-02T00:47:25.876Z,31.53
2018-03-02T00:49:53.444Z,38.97
2018-03-02T00:52:21.012Z,31.33
2018-03-02T00:54:48.571Z,45.50
2018-03-02T00:57:16.145Z,34.80
2018-03-02T00:59:43.703Z,36.67
2018-03-02T01:02:12.060Z,45.73
2018-03-02T01:04:39.619Z,38.23
2018-03-02T01:07:07.210Z,49.57
2018-03-02T01:09:34.779Z,37.13
2018-03-02T01:12:02.320Z,41.70
2018-03-02T01:14:29.883Z,37.30
2018-03-02T01:16:57.431Z,46.20
2018-03-02T01:19:25.005Z,37.27
2018-03-02T01:21:52.551Z,45.80
2018-03-02T01:24:20.884Z,41.40
2018-03-02T01:26:48.432Z,45.70
2018-03-02T01:29:16.004Z,49.67
2018-03-02T01:31:43.551Z,47.87
2018-03-02T01:34:11.115Z,44.73
2018-03-02T01:36:38.659Z,49.40
2018-03-02T01:39:06.239Z,35.73
2018-03-02T01:41:33.787Z,50.40
2018-03-02T01:44:01.384Z,55.00
2018-03-02T01:46:28.938Z,40.20
2018-03-02T01:48:56.479Z,45.80
2018-03-02T01:51:35.711Z,47.80
2018-03-02T01:54:04.063Z,49.90
2018-03-02T01:56:31.603Z,36.87
2018-03-02T01:58:59.169Z,37.20
2018-03-02T02:01:26.734Z,38.30
2018-03-02T02:03:54.288Z,37.03
2018-03-02T02:06:22.619Z,39.10
2018-03-02T02:08:50.163Z,42.00
2018-03-02T02:11:17.738Z,42.23
2018-03-02T02:13:45.282Z,39.70
2018-03-02T02:16:13.618Z,40.43
2018-03-02T02:18:41.159Z,41.77
2018-03-02T02:21:08.756Z,40.00
2018-03-02T02:23:36.308Z,38.20
2018-03-02T02:26:03.858Z,38.37
2018-03-02T02:28:32.199Z,41.10
2018-03-02T02:30:59.755Z,45.10
2018-03-02T02:33:27.327Z,36.03
2018-03-02T02:35:54.872Z,46.23
2018-03-02T02:38:23.209Z,35.63
2018-03-02T02:40:50.760Z,41.73
2018-03-02T02:43:18.335Z,36.97
2018-03-02T02:45:45.896Z,35.90
2018-03-02T02:48:13.464Z,36.80
2018-03-02T02:50:41.011Z,51.33
2018-03-02T02:53:09.348Z,39.90
2018-03-02T02:55:36.902Z,41.80
2018-03-02T02:58:04.536Z,42.20
2018-03-02T03:00:32.076Z,43.60
2018-03-02T03:02:59.624Z,29.50
2018-03-02T03:05:27.194Z,34.87
2018-03-02T03:07:54.743Z,44.27
2018-03-02T03:10:23.086Z,34.50
2018-03-02T03:12:50.634Z,36.80
2018-03-02T03:15:18.196Z,43.13
2018-03-02T03:17:45.748Z,44.10
2018-03-02T03:20:14.091Z,50.43
2018-03-02T03:22:41.632Z,43.27
2018-03-02T03:25:09.191Z,36.37
2018-03-02T03:27:36.768Z,32.27
2018-03-02T03:30:04.339Z,36.93
2018-03-02T03:32:31.899Z,43.70
2018-03-02T03:35:00.323Z,29.90
2018-03-02T03:37:27.866Z,36.40
2018-03-02T03:39:56.198Z,28.33
2018-03-02T03:42:23.771Z,41.87
2018-03-02T03:44:51.323Z,48.03
2018-03-02T03:47:18.897Z,52.20
2018-03-02T03:49:46.452Z,26.67
2018-03-02T03:52:14.019Z,30.60
2018-03-02T03:54:41.601Z,61.57
2018-03-02T03:57:09.171Z,40.97
2018-03-02T03:59:36.720Z,44.43
2018-03-02T04:02:05.059Z,39.70
2018-03-02T04:04:32.615Z,59.17
2018-03-02T04:07:00.215Z,60.57
2018-03-02T04:09:27.763Z,37.30
2018-03-02T04:11:55.311Z,43.13
2018-03-02T04:14:22.871Z,52.77
2018-03-02T04:16:51.183Z,47.93
2018-03-02T04:19:18.743Z,35.90
2018-03-02T04:21:46.295Z,47.30
2018-03-02T04:24:14.631Z,42.70
2018-03-02T04:26:42.167Z,54.10
2018-03-02T04:29:10.503Z,43.00
2018-03-02T04:31:38.046Z,28.23
2018-03-02T04:34:05.622Z,34.03
2018-03-02T04:36:33.166Z,35.90
2018-03-02T04:39:01.524Z,48.47
2018-03-02T04:41:29.067Z,27.57
2018-03-02T04:43:56.657Z,48.93
2018-03-02T04:46:24.211Z,53.73
2018-03-02T04:48:51.758Z,31.73
2018-03-02T04:51:19.329Z,40.80
2018-03-02T04:53:46.882Z,37.67
2018-03-02T04:56:15.219Z,37.80
2018-03-02T04:58:42.792Z,37.33
2018-03-02T05:01:10.355Z,36.50
2018-03-02T05:03:37.914Z,45.50
2018-03-02T05:06:05.536Z,52.60
2018-03-02T05:08:33.083Z,46.93
2018-03-02T05:11:00.652Z,41.93
2018-03-02T05:13:28.200Z,56.27
2018-03-02T05:15:55.775Z,48.93
2018-03-02T05:18:23.321Z,42.63
2018-03-02T05:20:51.651Z,67.90
2018-03-02T05:23:19.208Z,64.07
2018-03-02T05:25:46.812Z,57.73
2018-03-02T05:28:14.353Z,57.03
2018-03-02T05:30:41.913Z,36.13
2018-03-02T05:33:09.475Z,50.40
2018-03-02T05:35:37.788Z,52.17
2018-03-02T05:38:05.483Z,47.60
2018-03-02T05:40:33.040Z,52.00
2018-03-02T05:43:00.607Z,44.67
2018-03-02T05:45:28.154Z,44.20
2018-03-02T05:47:56.494Z,51.37
2018-03-02T05:50:24.036Z,51.27
2018-03-02T05:52:51.616Z,58.80
2018-03-02T05:55:19.172Z,51.83
2018-03-02T05:57:46.763Z,47.73
2018-03-02T06:00:14.320Z,42.00
2018-03-02T06:02:42.649Z,48.90
2018-03-02T06:05:10.240Z,62.63
2018-03-02T06:07:37.779Z,46.70
2018-03-02T06:10:05.349Z,40.57
2018-03-02T06:12:32.900Z,41.30
2018-03-02T06:15:00.472Z,47.13
2018-03-02T06:17:28.033Z,46.57
2018-03-02T06:19:55.598Z,43.13
2018-03-02T06:22:23.920Z,52.77
2018-03-02T06:24:51.492Z,36.30
2018-03-02T06:27:19.049Z,40.53
2018-03-02T06:29:46.645Z,52.13
2018-03-02T06:32:14.207Z,50.07
2018-03-02T06:34:41.772Z,35.80
2018-03-02T06:37:09.341Z,50.17
2018-03-02T06:39:36.895Z,55.70
2018-03-02T06:42:05.221Z,39.43
2018-03-02T06:44:32.777Z,45.97
2018-03-02T06:47:00.351Z,59.37
2018-03-02T06:49:27.895Z,54.33
2018-03-02T06:51:55.502Z,45.23
2018-03-02T06:54:23.047Z,53.50
2018-03-02T06:56:51.395Z,45.20
2018-03-02T06:59:19.714Z,50.50
2018-03-02T07:01:48.048Z,45.97
2018-03-02T07:04:15.615Z,52.47
2018-03-02T07:06:43.187Z,47.47
2018-03-02T07:09:10.739Z,59.70
2018-03-02T07:11:38.280Z,44.33
2018-03-02T07:14:06.623Z,46.90
2018-03-02T07:16:34.188Z,43.70
2018-03-02T07:19:01.769Z,45.70
2018-03-02T07:21:29.319Z,54.30
2018-03-02T07:23:56.891Z,38.93
2018-03-02T07:26:25.178Z,42.00
2018-03-02T07:28:52.740Z,49.37
2018-03-02T07:31:20.289Z,25.60
2018-03-02T07:33:47.856Z,46.53
2018-03-02T07:36:15.402Z,34.73
2018-03-02T07:38:42.960Z,42.60
2018-03-02T07:41:10.500Z,50.33
2018-03-02T07:43:38.088Z,52.90
2018-03-02T07:46:05.639Z,43.00
2018-03-02T07:48:33.189Z,55.97
2018-03-02T07:51:01.523Z,48.80
2018-03-02T07:53:29.067Z,52.47
2018-03-02T07:55:57.391Z,46.13
2018-03-02T07:58:24.935Z,52.10
2018-03-02T08:00:54.460Z,39.10
2018-03-02T08:03:22.015Z,31.40
2018-03-02T08:05:50.318Z,40.10
2018-03-02T08:08:17.878Z,31.13
2018-03-02T08:17:24.034Z,32.30
2018-03-02T08:19:51.612Z,36.10
2018-03-02T08:25:11.549Z,37.57
2018-03-02T08:27:45.294Z,40.20
2018-03-02T08:33:08.073Z,44.10
2018-03-02T08:35:35.648Z,33.27
2018-03-02T08:38:03.244Z,43.63
2018-03-02T08:40:30.796Z,40.40
2018-03-02T08:42:58.379Z,47.17
2018-03-02T08:45:25.957Z,28.77
2018-03-02T08:48:12.340Z,38.10
2018-03-02T08:50:39.958Z,27.77
2018-03-02T08:53:07.500Z,33.97
2018-03-02T08:55:36.803Z,45.07
2018-03-02T08:58:04.365Z,38.30
2018-03-02T09:00:32.002Z,29.27
2018-03-02T09:03:00.334Z,39.33
2018-03-02T09:05:27.914Z,39.63
2018-03-02T09:07:55.472Z,37.50
2018-03-02T09:10:23.037Z,35.93
2018-03-02T09:12:50.631Z,42.77
2018-03-02T09:15:18.199Z,38.30
2018-03-02T09:17:45.774Z,43.60
2018-03-02T09:20:13.316Z,39.13
2018-03-02T09:22:40.883Z,41.00
2018-03-02T09:25:08.446Z,31.67
2018-03-02T09:27:36.806Z,31.80
2018-03-02T09:30:04.397Z,32.37
2018-03-02T09:32:31.960Z,29.17
2018-03-02T09:34:59.561Z,33.80
2018-03-02T09:37:27.127Z,44.73
2018-03-02T09:39:55.445Z,36.03
2018-03-02T09:42:23.011Z,46.93
2018-03-02T09:44:51.987Z,39.40
2018-03-02T09:47:20.311Z,43.13
2018-03-02T09:49:49.173Z,34.77
2018-03-02T09:52:17.534Z,40.43
2018-03-02T09:54:45.156Z,43.97
2018-03-02T09:57:12.741Z,46.47
2018-03-02T09:59:40.298Z,36.43
2018-03-02T10:02:07.882Z,37.60
2018-03-02T10:04:35.455Z,40.50
2018-03-02T10:07:03.015Z,38.27
2018-03-02T10:09:32.382Z,33.53
2018-03-02T10:11:59.928Z,35.20
2018-03-02T10:14:27.491Z,36.53
2018-03-02T10:16:55.051Z,41.90
2018-03-02T10:19:22.616Z,30.77
2018-03-02T10:21:50.936Z,35.43
2018-03-02T10:24:18.496Z,34.10
2018-03-02T10:26:46.044Z,23.60
2018-03-02T10:29:14.371Z,30.77
2018-03-02T10:31:41.925Z,34.73
2018-03-02T10:34:09.501Z,42.53
2018-03-02T10:36:37.072Z,32.07
2018-03-02T10:39:04.689Z,36.13
2018-03-02T10:41:32.276Z,45.50
2018-03-02T10:44:00.604Z,32.80
2018-03-02T10:46:28.176Z,33.60
2018-03-02T10:48:55.734Z,54.70
2018-03-02T10:51:24.060Z,40.47
2018-03-02T10:53:51.614Z,55.63
2018-03-02T10:56:19.203Z,42.53
2018-03-02T10:58:46.748Z,35.43
2018-03-02T11:01:29.195Z,37.90
2018-03-02T11:04:01.616Z,43.17
2018-03-02T11:06:29.184Z,40.97
2018-03-02T11:08:56.732Z,36.03
2018-03-02T11:11:24.302Z,32.27
2018-03-02T11:13:51.843Z,43.13
2018-03-02T11:16:19.412Z,33.97
2018-03-02T11:18:46.969Z,51.47
2018-03-02T11:21:15.295Z,34.17
2018-03-02T11:23:42.843Z,35.10
2018-03-02T11:26:10.408Z,39.77
2018-03-02T11:28:38.712Z,43.47
2018-03-02T11:31:06.306Z,36.77
2018-03-02T11:33:33.855Z,47.17
2018-03-02T11:36:01.395Z,37.80
2018-03-02T11:38:29.724Z,36.00
2018-03-02T11:40:57.280Z,27.60
2018-03-02T11:43:24.835Z,34.73
2018-03-02T11:45:53.136Z,45.03
2018-03-02T11:48:21.471Z,29.07
2018-03-02T11:50:49.022Z,32.03
2018-03-02T11:53:16.585Z,32.30
2018-03-02T11:55:44.144Z,35.07
2018-03-02T11:58:11.690Z,36.57
2018-03-02T12:00:40.026Z,32.40
2018-03-02T12:03:07.588Z,34.60
2018-03-02T12:05:35.152Z,34.30
2018-03-02T12:08:02.695Z,34.67
2018-03-02T12:10:30.256Z,27.47
2018-03-02T12:12:57.791Z,24.27
2018-03-02T12:15:25.356Z,36.50
2018-03-02T12:17:52.895Z,46.33
2018-03-02T12:20:21.240Z,33.93
2018-03-02T12:22:48.836Z,33.37
2018-03-02T12:25:16.388Z,35.70
2018-03-02T12:27:43.926Z,33.10
2018-03-02T12:30:11.498Z,30.80
2018-03-02T12:32:39.060Z,36.27
2018-03-02T12:35:06.604Z,30.90
2018-03-02T12:37:34.938Z,32.23
2018-03-02T12:40:02.485Z,30.50
2018-03-02T12:42:30.799Z,30.00
2018-03-02T12:44:58.344Z,30.97
2018-03-02T12:47:26.693Z,33.83
2018-03-02T12:49:54.237Z,29.20
2018-03-02T12:52:21.830Z,36.87
2018-03-02T12:54:49.370Z,33.27
2018-03-02T12:57:16.915Z,38.10
2018-03-02T12:59:45.243Z,42.70
2018-03-02T13:02:12.783Z,44.63
2018-03-02T13:04:41.363Z,35.23
2018-03-02T13:07:08.895Z,36.77
2018-03-02T13:09:36.461Z,29.10
2018-03-02T13:12:04.004Z,31.97
2018-03-02T13:14:31.572Z,27.40
2018-03-02T13:16:59.124Z,33.90
2018-03-02T13:19:27.487Z,21.23
2018-03-02T13:21:55.028Z,35.00
2018-03-02T13:24:22.619Z,32.20
2018-03-02T13:27:01.833Z,27.67
2018-03-02T13:29:29.387Z,35.60
2018-03-02T13:31:57.723Z,36.37
2018-03-02T13:34:36.846Z,31.03
2018-03-02T13:37:04.389Z,30.77
2018-03-02T13:39:44.384Z,39.57
2018-03-02T13:42:11.927Z,37.87
2018-03-02T13:44:40.247Z,40.53
2018-03-02T13:47:07.788Z,35.27
2018-03-02T13:49:47.940Z,32.10
2018-03-02T13:52:15.475Z,30.20
2018-03-02T13:54:43.064Z,33.57
2018-03-02T13:57:22.407Z,38.63
2018-03-02T13:59:49.959Z,41.10
2018-03-02T14:02:29.175Z,38.17
2018-03-02T14:05:03.470Z,36.87
2018-03-02T14:07:31.010Z,29.43
2018-03-02T14:09:59.327Z,25.80
2018-03-02T14:12:26.864Z,36.27
2018-03-02T14:14:54.432Z,39.00
2018-03-02T14:17:21.995Z,32.17
2018-03-02T14:19:49.536Z,40.40
2018-03-02T14:22:17.876Z,42.50
2018-03-02T14:24:45.420Z,29.17
2018-03-02T14:27:12.983Z,24.43
2018-03-02T14:29:40.524Z,33.17
2018-03-02T14:32:08.089Z,35.17
2018-03-02T14:34:35.628Z,23.97
2018-03-02T14:37:03.182Z,46.10
2018-03-02T14:39:30.727Z,28.57
2018-03-02T14:41:59.048Z,21.70
2018-03-02T14:44:26.596Z,36.00
2018-03-02T14:46:54.927Z,32.70
2018-03-02T14:49:22.490Z,35.87
2018-03-02T14:51:50.043Z,33.30
2018-03-02T14:54:17.607Z,34.40
2018-03-02T14:56:45.172Z,33.57
2018-03-02T14:59:13.483Z,33.07
2018-03-02T15:01:41.052Z,48.03
2018-03-02T15:04:08.588Z,36.00
2018-03-02T15:06:36.919Z,41.87
2018-03-02T15:09:04.485Z,36.17
2018-03-02T15:11:32.059Z,28.60
2018-03-02T15:13:59.625Z,32.43
2018-03-02T15:16:27.212Z,32.87
2018-03-02T15:18:54.780Z,27.10
2018-03-02T15:21:22.339Z,39.07
2018-03-02T15:23:50.192Z,37.53
2018-03-02T15:26:17.780Z,26.50
2018-03-02T15:28:46.105Z,35.27
2018-03-02T15:31:13.654Z,34.40
2018-03-02T15:33:41.219Z,40.23
2018-03-02T15:36:08.772Z,36.63
2018-03-02T15:38:37.104Z,31.70
2018-03-02T15:41:04.649Z,38.83
2018-03-02T15:43:32.990Z,43.13
2018-03-02T15:46:00.541Z,38.97
2018-03-02T15:48:28.133Z,27.90
2018-03-02T15:50:55.672Z,29.43
2018-03-02T15:53:23.220Z,38.17
2018-03-02T15:55:50.834Z,33.50
2018-03-02T15:58:21.660Z,30.53
2018-03-02T16:00:49.245Z,29.07
2018-03-02T16:03:16.797Z,31.90
2018-03-02T16:05:45.353Z,26.33
2018-03-02T16:08:13.021Z,32.70
2018-03-02T16:10:40.614Z,49.13
2018-03-02T16:13:08.169Z,29.97
2018-03-02T16:15:35.735Z,30.93
2018-03-02T16:18:03.283Z,30.77
2018-03-02T16:20:30.844Z,27.07
2018-03-02T16:22:58.395Z,32.77
2018-03-02T16:25:26.743Z,33.07
2018-03-02T16:27:54.298Z,37.03
2018-03-02T16:30:21.855Z,33.10
2018-03-02T16:32:49.425Z,42.10
2018-03-02T16:35:16.968Z,30.57
2018-03-02T16:37:45.304Z,38.20
2018-03-02T16:40:12.863Z,44.57
2018-03-02T16:42:40.431Z,30.43
2018-03-02T16:45:08.296Z,26.97
2018-03-02T16:47:35.903Z,25.70
2018-03-02T16:50:03.436Z,28.90
2018-03-02T16:52:31.008Z,24.60
2018-03-02T16:54:59.329Z,29.83
2018-03-02T16:57:26.905Z,30.87
2018-03-02T16:59:54.447Z,25.80
2018-03-02T17:02:22.008Z,21.13
2018-03-02T17:04:50.321Z,25.27
2018-03-02T17:07:17.912Z,36.87
2018-03-02T17:09:45.459Z,30.47
2018-03-02T17:12:12.999Z,29.07
2018-03-02T17:14:40.567Z,36.53
2018-03-02T17:17:08.131Z,23.87
2018-03-02T17:19:35.715Z,25.87
2018-03-02T17:22:03.288Z,27.67
2018-03-02T17:24:30.848Z,45.97
2018-03-02T17:26:58.392Z,26.30
2018-03-02T17:29:25.951Z,50.43
2018-03-02T17:31:53.489Z,28.77
2018-03-02T17:34:21.816Z,21.90
2018-03-02T17:36:49.364Z,37.17
2018-03-02T17:39:16.928Z,27.23
2018-03-02T17:41:44.479Z,27.50
2018-03-02T17:44:13.697Z,34.63
2018-03-02T17:46:41.264Z,31.20
2018-03-02T17:49:08.832Z,35.33
2018-03-02T17:51:36.380Z,31.67
2018-03-02T17:54:03.959Z,30.13
2018-03-02T17:56:33.061Z,38.53
2018-03-02T17:59:00.596Z,40.37
2018-03-02T18:01:28.175Z,34.93
2018-03-02T18:03:55.724Z,35.70
2018-03-02T18:06:23.352Z,39.80
2018-03-02T18:08:50.923Z,30.07
2018-03-02T18:11:19.109Z,39.13
2018-03-02T18:13:46.660Z,30.10
2018-03-02T18:16:14.223Z,42.97
2018-03-02T18:18:41.773Z,42.57
2018-03-02T18:21:09.340Z,36.47
2018-03-02T18:23:37.651Z,38.43
2018-03-02T18:26:05.217Z,38.37
2018-03-02T18:28:32.770Z,37.77
2018-03-02T18:31:01.099Z,39.23
2018-03-02T18:33:28.684Z,40.33
2018-03-02T18:35:56.252Z,37.40
2018-03-02T18:38:23.901Z,48.60
2018-03-02T18:40:51.991Z,44.33
2018-03-02T18:43:19.544Z,38.30
2018-03-02T18:45:47.912Z,40.10
2018-03-02T18:48:17.277Z,32.93
2018-03-02T18:50:44.823Z,36.00
2018-03-02T18:53:19.168Z,41.23
2018-03-02T18:55:46.711Z,36.10
2018-03-02T18:58:15.057Z,44.27
2018-03-02T19:00:42.633Z,47.00
2018-03-02T19:03:10.203Z,39.90
2018-03-02T19:05:39.363Z,51.77
2018-03-02T19:08:07.699Z,39.40
2018-03-02T19:10:35.258Z,43.70
2018-03-02T19:13:02.829Z,37.87
2018-03-02T19:15:30.376Z,45.40
2018-03-02T19:17:57.948Z,48.93
2018-03-02T19:20:26.264Z,34.47
2018-03-02T19:22:53.824Z,39.37
2018-03-02T19:25:21.376Z,44.47
2018-03-02T19:27:50.000Z,44.50
2018-03-02T19:30:17.568Z,40.60
2018-03-02T19:32:45.123Z,44.97
2018-03-02T19:35:13.701Z,42.20
2018-03-02T19:37:47.755Z,45.80
2018-03-02T19:43:08.650Z,46.23
2018-03-02T19:45:38.045Z,45.77
2018-03-02T19:48:05.652Z,43.60
2018-03-02T19:50:35.049Z,51.23
2018-03-02T19:53:02.602Z,51.20
2018-03-02T19:55:30.168Z,39.77
2018-03-02T19:57:59.348Z,37.93
2018-03-02T20:00:27.801Z,45.53
2018-03-02T20:02:55.352Z,43.27
2018-03-02T20:05:23.730Z,49.03
2018-03-02T20:07:51.460Z,47.17
2018-03-02T20:10:19.019Z,42.47
2018-03-02T20:12:46.636Z,47.63
2018-03-02T20:15:14.272Z,41.90
2018-03-02T20:17:41.878Z,47.07
2018-03-02T20:20:09.424Z,46.10
2018-03-02T20:22:37.752Z,55.10
2018-03-02T20:25:06.012Z,44.13
2018-03-02T20:27:34.363Z,45.77
2018-03-02T20:30:01.923Z,48.43
2018-03-02T20:32:29.517Z,38.23
2018-03-02T20:34:57.888Z,45.60
2018-03-02T20:37:25.433Z,50.03
2018-03-02T20:39:53.412Z,53.33
2018-03-02T20:42:20.950Z,51.03
2018-03-02T20:44:49.705Z,48.10
2018-03-02T20:47:17.260Z,48.50
2018-03-02T20:49:44.843Z,59.67
2018-03-02T20:52:12.408Z,46.30
2018-03-02T20:54:39.965Z,54.57
2018-03-02T20:57:07.511Z,50.50
2018-03-02T20:59:35.852Z,49.97
2018-03-02T21:02:03.399Z,58.33
2018-03-02T21:04:30.964Z,51.90
2018-03-02T21:06:58.512Z,44.30
2018-03-02T21:09:26.074Z,52.97
2018-03-02T21:11:54.441Z,50.80
2018-03-02T21:14:22.024Z,49.70
2018-03-02T21:16:49.578Z,47.47
2018-03-02T21:19:17.121Z,60.03
2018-03-02T21:21:44.699Z,42.97
2018-03-02T21:24:12.243Z,48.70
2018-03-02T21:26:40.592Z,44.93
2018-03-02T21:29:08.139Z,62.70
2018-03-02T21:31:35.724Z,49.87
2018-03-02T21:34:03.285Z,46.77
2018-03-02T21:36:30.855Z,52.70
2018-03-02T21:38:58.395Z,60.23
2018-03-02T21:41:26.719Z,55.27
2018-03-02T21:43:54.942Z,56.60
2018-03-02T21:46:23.489Z,58.53
2018-03-02T21:48:51.040Z,53.07
2018-03-02T21:51:19.364Z,62.03
2018-03-02T21:53:47.736Z,57.63
2018-03-02T21:56:15.324Z,40.57
2018-03-02T21:58:42.955Z,47.30
2018-03-02T22:01:10.626Z,37.23
2018-03-02T22:03:38.280Z,54.80
2018-03-02T22:06:05.848Z,52.97
2018-03-02T22:08:33.418Z,53.60
2018-03-02T22:11:00.989Z,59.63
2018-03-02T22:13:28.551Z,57.40
2018-03-02T22:15:56.095Z,47.73
2018-03-02T22:18:23.663Z,55.60
2018-03-02T22:20:51.207Z,52.70
2018-03-02T22:23:18.803Z,56.87
2018-03-02T22:25:46.356Z,63.03
2018-03-02T22:28:13.915Z,59.77
2018-03-02T22:30:41.467Z,58.87
2018-03-02T22:33:09.500Z,72.67
2018-03-02T22:35:37.063Z,49.67
2018-03-02T22:38:05.367Z,47.87
2018-03-02T22:40:33.045Z,70.40
2018-03-02T22:43:00.586Z,75.70
2018-03-02T22:45:28.930Z,64.27
2018-03-02T22:47:56.472Z,60.83
2018-03-02T22:50:24.039Z,56.20
2018-03-02T22:52:51.597Z,55.73
2018-03-02T22:55:19.927Z,65.67
2018-03-02T22:57:47.789Z,60.27
2018-03-02T23:00:15.360Z,62.07
2018-03-02T23:02:42.916Z,53.23
2018-03-02T23:05:11.225Z,65.87
2018-03-02T23:07:38.784Z,55.93
2018-03-02T23:10:06.336Z,56.60
2018-03-02T23:12:34.659Z,89.83
2018-03-02T23:15:02.249Z,56.27
2018-03-02T23:17:29.805Z,58.03
2018-03-02T23:19:57.352Z,57.73
2018-03-02T23:22:25.675Z,68.17
2018-03-02T23:24:53.223Z,58.23
2018-03-02T23:27:20.788Z,69.27
2018-03-02T23:29:49.744Z,61.97
2018-03-02T23:32:17.337Z,54.10
2018-03-02T23:34:44.896Z,64.70
2018-03-02T23:37:12.547Z,51.60
2018-03-02T23:39:40.112Z,65.97
2018-03-02T23:42:07.660Z,70.47
2018-03-02T23:44:35.234Z,64.43
2018-03-02T23:47:02.804Z,47.00
2018-03-02T23:49:30.363Z,62.83
2018-03-02T23:51:58.677Z,63.17
2018-03-02T23:54:26.236Z,63.17
2018-03-02T23:56:53.776Z,56.10
2018-03-02T23:59:21.339Z,58.33
